createdAt,value
2022-07-26T00:01:41.488Z,40.61
2022-07-26T00:16:43.928Z,39.78
2022-07-26T00:31:46.325Z,39.86
2022-07-26T00:46:48.688Z,39.51
2022-07-26T01:01:51.150Z,39.45
2022-07-26T01:16:53.572Z,39.2
2022-07-26T01:31:55.834Z,38.81
2022-07-26T01:46:58.195Z,38.31
2022-07-26T02:02:00.680Z,37.74
2022-07-26T02:17:03.032Z,35.7
2022-07-26T02:32:05.305Z,35.71
2022-07-26T02:47:07.617Z,34.37
2022-07-26T03:02:09.933Z,34.12
2022-07-26T03:17:12.251Z,33.39
2022-07-26T03:32:14.514Z,32.17
2022-07-26T03:47:16.807Z,31.63
2022-07-26T04:02:19.154Z,31.01
2022-07-26T04:17:21.623Z,29.31
2022-07-26T04:32:23.933Z,29.72
2022-07-26T04:47:26.254Z,29.32
2022-07-26T05:02:28.682Z,28.01
2022-07-26T05:17:31.128Z,28.22
2022-07-26T05:32:37.565Z,27.39
2022-07-26T05:47:39.843Z,27.08
2022-07-26T06:02:42.214Z,27.06
2022-07-26T06:17:44.641Z,26.53
2022-07-26T06:32:47.047Z,26.99
2022-07-26T06:47:49.352Z,26.25
2022-07-26T07:02:51.860Z,25.16
2022-07-26T07:17:54.124Z,25.43
2022-07-26T07:32:56.554Z,24.91
2022-07-26T07:47:59.000Z,24.57
2022-07-26T08:03:01.266Z,24.29
2022-07-26T08:18:03.621Z,23.27
2022-07-26T08:33:08.858Z,22.92
2022-07-26T08:48:18.396Z,23.24
2022-07-26T09:03:21.141Z,23.16
2022-07-26T09:18:23.515Z,22.64
2022-07-26T09:33:26.648Z,22.42
2022-07-26T09:48:36.509Z,21.56
2022-07-26T10:03:48.717Z,21.72
2022-07-26T10:18:51.062Z,21.33
2022-07-26T10:33:53.639Z,21.71
2022-07-26T10:48:56.099Z,21.65
2022-07-26T11:03:58.444Z,21.72
2022-07-26T11:19:00.725Z,20.95
2022-07-26T11:34:02.976Z,20.68
2022-07-26T11:49:05.530Z,21.06
2022-07-26T12:04:08.458Z,20.85
2022-07-26T12:19:11.161Z,21.01
2022-07-26T12:34:13.966Z,20.89
2022-07-26T12:49:16.661Z,20.91
2022-07-26T13:04:19.266Z,20.25
2022-07-26T13:19:21.540Z,20.62
2022-07-26T13:34:23.851Z,21.12
2022-07-26T13:49:26.256Z,21.64
2022-07-26T14:04:29.117Z,22.09
2022-07-26T14:19:31.549Z,22.81
2022-07-26T14:34:33.827Z,23.36
2022-07-26T14:49:36.243Z,23.94
2022-07-26T15:04:38.519Z,24.43
2022-07-26T15:19:40.862Z,26.46
2022-07-26T15:34:43.163Z,27.75
2022-07-26T15:49:45.503Z,28.46
2022-07-26T16:04:47.818Z,29.21
2022-07-26T16:19:51.102Z,29.46
2022-07-26T16:34:53.404Z,30.09
2022-07-26T16:49:55.705Z,30.7
2022-07-26T17:04:58.175Z,31.05
2022-07-26T17:20:00.514Z,31.55
2022-07-26T17:35:02.780Z,32.14
2022-07-26T18:05:41.079Z,33.24
2022-07-26T18:20:43.829Z,33.78
2022-07-26T18:35:46.153Z,34.62
2022-07-26T18:50:48.413Z,34.67
2022-07-26T19:05:53.270Z,34.72
2022-07-26T19:20:55.696Z,35.01
2022-07-26T19:35:57.993Z,35.39
2022-07-26T19:51:00.288Z,35.85
2022-07-26T20:06:02.657Z,36.88
2022-07-26T20:21:04.973Z,37.59
2022-07-26T20:36:07.404Z,38.03
2022-07-26T20:51:13.712Z,38.72
2022-07-26T21:06:16.435Z,38.48
2022-07-26T21:21:18.755Z,40.08
2022-07-26T21:36:21.061Z,40.34
2022-07-26T21:51:23.371Z,40.13
2022-07-26T22:06:25.667Z,39.39
2022-07-26T22:21:27.926Z,40.89
2022-07-26T22:36:30.379Z,40.85
2022-07-26T22:51:32.714Z,41.72
2022-07-26T23:06:36.165Z,41.47
2022-07-26T23:21:38.509Z,40.18
2022-07-26T23:36:40.816Z,41.08
2022-07-26T23:51:43.115Z,42.26
